Time;durP1;ratioP1;P1;durP2;ratioP2;P2;SDS_P1;SDS_P2;PMS_P1;PMS_P2;Temp;Humidity;BMP_temperature;BMP_pressure;BME280_temperature;BME280_humidity;BME280_pressure;Samples;Min_cycle;Max_cycle;Signal;HPM_P1;HPM_P2
2022/11/02 00:00:01;;;;;;;3.90;2.60;;;11.10;99.90;;;;;;5074209;28;20451;-62
2022/11/02 00:02:29;;;;;;;7.20;3.10;;;11.10;99.90;;;;;;5074389;28;20571;-62
2022/11/02 00:04:56;;;;;;;9.87;3.20;;;11.20;99.90;;;;;;5074083;28;20491;-63
2022/11/02 00:07:23;;;;;;;5.20;3.00;;;11.10;99.90;;;;;;5074430;28;20791;-63
2022/11/02 00:09:51;;;;;;;9.23;3.23;;;11.10;99.90;;;;;;5074101;28;20539;-63
2022/11/02 00:12:18;;;;;;;6.23;3.03;;;11.00;99.90;;;;;;5073602;28;20479;-62
2022/11/02 00:14:45;;;;;;;4.80;3.50;;;10.90;99.90;;;;;;5074009;28;20781;-63
2022/11/02 00:17:12;;;;;;;7.60;3.53;;;10.90;99.90;;;;;;5074050;28;20494;-62
2022/11/02 00:19:40;;;;;;;4.30;2.80;;;10.80;99.90;;;;;;5074139;28;20787;-62
2022/11/02 00:22:07;;;;;;;5.93;2.30;;;10.90;99.90;;;;;;5074186;28;20448;-63
2022/11/02 00:24:39;;;;;;;7.43;3.23;;;;;;;;;;5074045;28;20452;-62
2022/11/02 00:27:06;;;;;;;5.13;2.77;;;10.80;99.90;;;;;;5073942;28;20444;-62
2022/11/02 00:29:34;;;;;;;9.53;2.90;;;10.90;99.90;;;;;;5074022;28;20440;-62
2022/11/02 00:32:01;;;;;;;4.40;2.83;;;10.90;99.90;;;;;;5073773;28;20460;-63
2022/11/02 00:34:28;;;;;;;8.30;2.97;;;10.90;99.90;;;;;;5073893;28;20891;-62
2022/11/02 00:36:57;;;;;;;7.60;3.20;;;10.90;99.90;;;;;;5073854;28;20484;-62
2022/11/02 00:39:24;;;;;;;5.10;2.90;;;11.00;99.90;;;;;;5073674;28;20457;-62
2022/11/02 00:41:51;;;;;;;6.20;3.40;;;10.90;99.90;;;;;;5073600;28;20539;-63
2022/11/02 00:44:18;;;;;;;6.23;2.87;;;10.90;99.90;;;;;;5073774;28;20535;-63
2022/11/02 00:46:45;;;;;;;6.23;2.73;;;10.90;99.90;;;;;;5073658;28;20521;-62
2022/11/02 00:49:12;;;;;;;4.63;2.97;;;10.90;99.90;;;;;;5073308;28;20506;-62
2022/11/02 00:51:39;;;;;;;2.67;2.43;;;10.90;99.90;;;;;;5073699;28;20453;-62
2022/11/02 00:54:07;;;;;;;9.83;2.77;;;10.90;99.90;;;;;;5073506;28;20869;-62
2022/11/02 00:56:34;;;;;;;7.83;2.93;;;10.90;99.90;;;;;;5073480;28;20508;-62
2022/11/02 00:59:01;;;;;;;3.40;2.50;;;10.80;99.90;;;;;;5073643;28;20448;-63
2022/11/02 01:01:28;;;;;;;4.77;2.60;;;10.80;99.90;;;;;;5073466;28;20457;-63
2022/11/02 01:03:56;;;;;;;5.83;3.00;;;10.80;99.90;;;;;;5073180;28;20480;-63
2022/11/02 01:06:23;;;;;;;4.23;3.10;;;10.90;99.90;;;;;;5073513;28;20453;-63
2022/11/02 01:08:51;;;;;;;6.20;3.90;;;10.90;99.90;;;;;;5073415;28;20440;-62
2022/11/02 01:11:22;;;;;;;6.37;2.37;;;10.90;99.90;;;;;;5073038;28;20456;-62
2022/11/02 01:13:51;;;;;;;3.10;2.53;;;10.90;99.90;;;;;;5073074;28;20464;-62
2022/11/02 01:16:19;;;;;;;6.60;3.43;;;10.90;99.90;;;;;;5073339;28;20452;-63
2022/11/02 01:18:46;;;;;;;3.10;2.80;;;10.90;99.90;;;;;;5073260;28;20459;-63
2022/11/02 01:21:13;;;;;;;5.20;2.40;;;10.90;99.90;;;;;;5073286;28;20802;-63
2022/11/02 01:23:40;;;;;;;4.30;2.70;;;11.00;99.90;;;;;;5072559;28;20476;-63
2022/11/02 01:26:09;;;;;;;3.30;2.13;;;11.10;99.90;;;;;;5073207;28;20452;-63
2022/11/02 01:28:38;;;;;;;8.47;2.97;;;11.10;99.90;;;;;;5073215;28;20444;-62
2022/11/02 01:31:06;;;;;;;5.00;2.40;;;11.20;99.90;;;;;;5073029;28;20506;-63
2022/11/02 01:33:34;;;;;;;6.77;2.53;;;11.20;99.90;;;;;;5073345;28;20480;-62
2022/11/02 01:36:03;;;;;;;3.67;2.73;;;11.30;99.90;;;;;;5073168;28;20444;-63
2022/11/02 01:38:31;;;;;;;6.13;3.27;;;11.40;99.90;;;;;;5072738;28;20829;-63
2022/11/02 01:40:59;;;;;;;12.47;3.13;;;11.40;99.90;;;;;;5072984;28;20452;-63
2022/11/02 01:43:28;;;;;;;5.33;3.30;;;11.50;99.90;;;;;;5073191;28;20472;-63
2022/11/02 01:46:00;;;;;;;3.27;2.53;;;11.50;99.90;;;;;;5073123;28;20537;-62
2022/11/02 01:48:33;;;;;;;4.00;2.43;;;11.60;99.90;;;;;;5073158;28;20428;-63
2022/11/02 01:51:04;;;;;;;3.33;2.53;;;11.60;99.90;;;;;;5073190;28;20417;-62
2022/11/02 01:53:33;;;;;;;6.47;3.10;;;11.50;99.90;;;;;;5072731;28;20522;-62
2022/11/02 01:56:01;;;;;;;3.50;2.63;;;11.50;99.90;;;;;;5072989;28;20444;-63
2022/11/02 01:58:29;;;;;;;4.13;3.17;;;11.60;99.90;;;;;;5073074;28;20863;-63
2022/11/02 02:00:57;;;;;;;4.07;2.80;;;11.60;99.90;;;;;;5072973;28;20537;-63
2022/11/02 02:03:25;;;;;;;2.87;2.40;;;11.70;99.90;;;;;;5072845;28;20483;-62
2022/11/02 02:05:58;;;;;;;4.73;3.10;;;11.70;99.90;;;;;;5072992;28;20895;-63
2022/11/02 02:08:26;;;;;;;7.40;2.90;;;11.70;99.90;;;;;;5073017;28;20837;-63
2022/11/02 02:10:56;;;;;;;3.30;3.00;;;11.70;99.90;;;;;;5072835;28;20452;-63
2022/11/02 02:13:26;;;;;;;7.50;3.20;;;11.70;99.90;;;;;;5072389;28;20975;-63
2022/11/02 02:16:11;;;;;;;4.30;2.90;;;11.70;99.90;;;;;;5072953;28;20448;-64
2022/11/02 02:18:43;;;;;;;3.87;2.80;;;11.70;99.90;;;;;;5072890;28;20809;-63
2022/11/02 02:21:26;;;;;;;7.30;3.10;;;11.70;99.90;;;;;;5072939;28;20444;-62
2022/11/02 02:24:18;;;;;;;7.20;3.10;;;11.70;99.90;;;;;;5072703;28;20468;-63
2022/11/02 02:27:09;;;;;;;4.40;2.80;;;11.70;99.90;;;;;;5072865;28;20432;-63
2022/11/02 02:29:49;;;;;;;3.80;2.63;;;11.70;99.90;;;;;;5072849;28;20420;-63
2022/11/02 02:32:23;;;;;;;3.70;3.10;;;11.70;99.90;;;;;;5072626;28;20964;-63
2022/11/02 02:34:54;;;;;;;6.20;3.20;;;11.70;99.90;;;;;;5073532;28;20425;-63
2022/11/02 02:37:27;;;;;;;4.50;2.63;;;11.70;99.90;;;;;;5075833;28;20480;-63
2022/11/02 02:40:00;;;;;;;7.77;4.07;;;11.70;99.90;;;;;;5076156;28;20425;-62
2022/11/02 02:42:34;;;;;;;7.23;3.23;;;11.80;99.90;;;;;;5075970;28;20507;-63
2022/11/02 02:45:12;;;;;;;4.10;3.00;;;11.70;99.90;;;;;;5075779;28;20914;-63
2022/11/02 02:47:45;;;;;;;4.97;2.90;;;11.80;99.90;;;;;;5075991;28;20428;-63
2022/11/02 02:50:17;;;;;;;4.63;3.03;;;11.80;99.90;;;;;;5075977;28;20436;-62
2022/11/02 02:52:46;;;;;;;4.13;2.80;;;11.80;99.90;;;;;;5075981;28;20485;-62
2022/11/02 02:55:17;;;;;;;4.63;2.93;;;11.80;99.90;;;;;;5075658;28;20452;-62
2022/11/02 02:57:45;;;;;;;4.50;3.87;;;11.80;99.90;;;;;;5075456;28;20464;-62
2022/11/02 03:00:16;;;;;;;4.23;2.80;;;11.70;99.90;;;;;;5075380;28;20935;-62
2022/11/02 03:02:59;;;;;;;5.27;3.17;;;11.70;99.90;;;;;;5075657;28;20487;-61
2022/11/02 03:05:28;;;;;;;5.13;2.80;;;11.70;99.90;;;;;;5075402;28;20881;-62
2022/11/02 03:08:00;;;;;;;8.63;3.60;;;11.70;99.90;;;;;;5075530;28;20444;-63
2022/11/02 03:10:32;;;;;;;5.07;2.83;;;11.70;99.90;;;;;;5075521;28;20433;-63
2022/11/02 03:13:10;;;;;;;4.70;3.60;;;11.60;99.90;;;;;;5075441;28;20472;-62
2022/11/02 03:15:42;;;;;;;2.80;2.37;;;11.60;99.90;;;;;;5075523;28;20428;-62
2022/11/02 03:18:18;;;;;;;4.37;2.90;;;11.50;99.90;;;;;;5075503;28;20467;-62
2022/11/02 03:20:57;;;;;;;5.27;3.43;;;11.60;99.90;;;;;;5075377;28;20433;-62
2022/11/02 03:23:31;;;;;;;4.40;2.80;;;11.60;99.90;;;;;;5075197;28;21033;-62
2022/11/02 03:26:04;;;;;;;4.00;2.90;;;11.60;99.90;;;;;;5075314;28;20432;-62
2022/11/02 03:28:52;;;;;;;8.20;3.27;;;11.70;99.90;;;;;;5074899;28;20429;-62
2022/11/02 03:31:31;;;;;;;10.00;3.10;;;11.70;99.90;;;;;;5074886;28;20433;-62
2022/11/02 03:34:03;;;;;;;4.03;3.30;;;11.70;99.90;;;;;;5075148;28;20479;-63
2022/11/02 03:36:35;;;;;;;2.50;2.30;;;11.70;99.90;;;;;;5075164;28;20437;-63
2022/11/02 03:39:08;;;;;;;3.80;2.30;;;11.70;99.90;;;;;;5074793;28;20470;-61
2022/11/02 03:41:37;;;;;;;6.13;2.50;;;11.70;99.90;;;;;;5075000;28;20421;-62
2022/11/02 03:44:07;;;;;;;3.90;2.60;;;11.80;99.90;;;;;;5074838;28;20820;-62
2022/11/02 03:46:40;;;;;;;3.90;2.60;;;11.80;99.90;;;;;;5074328;28;20433;-62
2022/11/02 03:49:10;;;;;;;4.13;3.10;;;11.90;99.90;;;;;;5074552;28;20519;-62
2022/11/02 03:51:41;;;;;;;4.20;2.37;;;11.90;99.90;;;;;;5074760;28;20433;-62
2022/11/02 03:54:13;;;;;;;3.17;2.93;;;11.80;99.90;;;;;;5074858;28;20469;-62
2022/11/02 03:56:44;;;;;;;9.80;4.17;;;11.90;99.90;;;;;;5074459;28;20900;-62
2022/11/02 03:59:12;;;;;;;4.43;2.67;;;11.90;99.90;;;;;;5074731;28;20468;-62
2022/11/02 04:01:43;;;;;;;4.33;2.80;;;11.90;99.90;;;;;;5074701;28;20855;-62
2022/11/02 04:04:11;;;;;;;4.43;3.10;;;11.90;99.90;;;;;;5074231;28;20491;-62
2022/11/02 04:06:39;;;;;;;4.40;2.57;;;11.90;99.90;;;;;;5074140;28;21000;-62
2022/11/02 04:09:07;;;;;;;4.70;2.80;;;11.80;99.90;;;;;;5074157;28;20444;-62
2022/11/02 04:19:49;;;;;;;2.63;2.30;;;11.90;99.90;;;;;;5074087;28;20412;-63
2022/11/02 04:25:18;;;;;;;4.90;3.50;;;11.90;99.90;;;;;;5074202;28;20404;-62
2022/11/02 04:27:46;;;;;;;9.23;3.20;;;11.90;99.90;;;;;;5074121;28;20429;-62
2022/11/02 04:30:15;;;;;;;3.07;2.40;;;11.90;99.90;;;;;;5073998;28;20440;-63
2022/11/02 04:35:30;;;;;;;5.70;2.57;;;12.00;99.90;;;;;;5073663;28;20994;-62
2022/11/02 04:41:40;;;;;;;5.60;2.50;;;11.90;99.90;;;;;;5025891;28;20458;-62
2022/11/02 04:43:39;;;;;;;6.73;2.43;;;11.90;99.90;;;;;;5073314;28;20456;-62
2022/11/02 04:46:06;;;;;;;4.67;2.70;;;11.90;99.90;;;;;;5073767;28;20444;-61
2022/11/02 04:48:34;;;;;;;6.50;2.77;;;11.90;99.90;;;;;;5073323;28;20447;-63
2022/11/02 04:51:02;;;;;;;2.40;1.97;;;11.90;99.90;;;;;;5073609;28;20525;-62
2022/11/02 04:53:29;;;;;;;3.87;2.30;;;11.90;99.90;;;;;;5073852;28;20468;-62
2022/11/02 04:55:56;;;;;;;4.10;2.37;;;11.90;99.90;;;;;;5073240;28;20973;-62
2022/11/02 04:58:23;;;;;;;6.13;2.90;;;11.80;99.90;;;;;;5072595;28;20812;-62
2022/11/02 05:00:50;;;;;;;9.83;3.27;;;11.90;99.90;;;;;;5073614;28;20448;-61
2022/11/02 05:03:17;;;;;;;2.60;2.40;;;11.80;99.90;;;;;;5073333;28;20498;-62
2022/11/02 05:05:46;;;;;;;4.03;2.30;;;11.80;99.90;;;;;;5073463;28;20439;-62
2022/11/02 05:08:13;;;;;;;6.67;2.43;;;11.70;99.90;;;;;;5073445;28;20450;-62
2022/11/02 05:10:40;;;;;;;6.87;2.87;;;11.80;99.90;;;;;;5073044;28;20459;-63
2022/11/02 05:13:07;;;;;;;3.13;2.10;;;11.70;99.90;;;;;;5073043;28;20464;-63
2022/11/02 05:15:34;;;;;;;6.47;3.67;;;11.70;99.90;;;;;;5073457;28;20446;-63
2022/11/02 05:18:01;;;;;;;4.60;2.40;;;11.70;99.90;;;;;;5072907;28;20567;-63
2022/11/02 05:20:29;;;;;;;5.67;2.60;;;11.70;99.90;;;;;;5073020;28;20444;-62
2022/11/02 05:22:57;;;;;;;5.33;2.70;;;11.70;99.90;;;;;;5073372;28;20468;-62
2022/11/02 05:25:24;;;;;;;6.10;3.00;;;11.70;99.90;;;;;;5073307;28;20448;-62
2022/11/02 05:27:51;;;;;;;10.50;2.40;;;11.60;99.90;;;;;;5073350;28;20781;-62
2022/11/02 05:30:18;;;;;;;3.70;3.37;;;11.70;99.90;;;;;;5073292;28;20441;-62
2022/11/02 05:32:46;;;;;;;4.03;2.90;;;11.70;99.90;;;;;;5073088;28;20482;-63
2022/11/02 05:35:13;;;;;;;4.90;2.40;;;11.70;99.90;;;;;;5072851;28;21005;-62
2022/11/02 05:37:40;;;;;;;6.93;2.53;;;11.70;99.90;;;;;;5073078;28;20452;-62
2022/11/02 05:40:10;;;;;;;2.67;2.47;;;11.70;99.90;;;;;;5072736;28;20951;-62
2022/11/02 05:42:37;;;;;;;3.70;2.10;;;11.70;99.90;;;;;;5073193;28;20470;-62
2022/11/02 05:45:05;;;;;;;6.10;2.20;;;11.70;99.90;;;;;;5072622;28;20455;-62
2022/11/02 05:47:34;;;;;;;3.63;2.47;;;11.80;99.90;;;;;;5073056;28;20440;-62
2022/11/02 05:50:01;;;;;;;5.30;2.70;;;11.70;99.90;;;;;;5072931;28;20448;-62
2022/11/02 05:52:28;;;;;;;2.60;2.40;;;11.70;99.90;;;;;;5072739;28;20464;-61
2022/11/02 05:54:55;;;;;;;2.77;2.10;;;11.80;99.90;;;;;;5072663;28;20444;-61
2022/11/02 05:57:24;;;;;;;5.80;3.60;;;11.80;99.90;;;;;;5072852;28;20483;-62
2022/11/02 05:59:51;;;;;;;3.60;2.83;;;11.80;99.90;;;;;;5072724;28;20512;-61
2022/11/02 06:02:18;;;;;;;4.23;2.87;;;11.70;99.90;;;;;;5072600;28;20480;-62
2022/11/02 06:04:45;;;;;;;4.03;3.10;;;11.70;99.90;;;;;;5072391;28;21078;-62
2022/11/02 06:07:12;;;;;;;7.93;3.07;;;11.60;99.90;;;;;;5072578;28;20535;-62
2022/11/02 06:09:39;;;;;;;5.30;3.03;;;11.70;99.90;;;;;;5073264;28;20531;-62
2022/11/02 06:12:07;;;;;;;4.60;2.87;;;11.60;99.90;;;;;;5076433;28;20553;-62
2022/11/02 06:14:36;;;;;;;6.40;2.60;;;11.60;99.90;;;;;;5076265;28;20456;-62
2022/11/02 06:17:03;;;;;;;7.10;2.87;;;11.60;99.90;;;;;;5076158;28;20439;-63
2022/11/02 06:19:30;;;;;;;9.20;2.87;;;11.60;99.90;;;;;;5075892;28;20985;-63
2022/11/02 06:21:57;;;;;;;6.87;2.67;;;11.50;99.90;;;;;;5075881;28;20448;-62
2022/11/02 06:24:24;;;;;;;3.10;2.50;;;11.50;99.90;;;;;;5075946;28;20480;-62
2022/11/02 06:26:51;;;;;;;5.00;3.10;;;11.50;99.90;;;;;;5075870;28;20961;-62
2022/11/02 06:29:19;;;;;;;7.20;2.60;;;11.50;99.90;;;;;;5076058;28;20440;-62
2022/11/02 06:31:47;;;;;;;4.37;3.03;;;11.50;99.90;;;;;;5075992;28;20448;-61
2022/11/02 06:34:14;;;;;;;4.97;2.77;;;11.60;99.90;;;;;;5075789;28;20479;-61
2022/11/02 06:36:41;;;;;;;5.43;2.90;;;11.60;99.90;;;;;;5076079;28;20450;-62
2022/11/02 06:39:08;;;;;;;3.47;2.30;;;11.70;99.90;;;;;;5075718;28;20570;-61
2022/11/02 06:41:36;;;;;;;5.73;2.57;;;11.70;99.90;;;;;;5076130;28;20471;-62
2022/11/02 06:44:03;;;;;;;5.40;2.50;;;11.80;99.90;;;;;;5075422;28;20464;-63
2022/11/02 06:46:31;;;;;;;5.97;2.83;;;11.90;99.90;;;;;;5075876;28;20455;-62
2022/11/02 06:48:59;;;;;;;11.30;2.67;;;11.90;99.90;;;;;;5076028;28;20448;-61
2022/11/02 06:51:26;;;;;;;5.67;2.80;;;12.00;99.90;;;;;;5075688;28;20852;-61
2022/11/02 06:53:53;;;;;;;5.30;3.30;;;12.10;99.90;;;;;;5075313;28;20468;-61
2022/11/02 06:56:21;;;;;;;7.23;4.00;;;12.20;99.90;;;;;;5075772;28;20454;-62
2022/11/02 06:58:48;;;;;;;4.10;2.80;;;12.20;99.90;;;;;;5075534;28;20494;-62
2022/11/02 07:01:15;;;;;;;5.07;2.53;;;12.40;99.90;;;;;;5075217;28;20451;-62
2022/11/02 07:03:42;;;;;;;13.23;3.63;;;12.40;99.90;;;;;;5075279;28;20491;-62
2022/11/02 07:06:11;;;;;;;6.33;3.30;;;12.40;99.90;;;;;;5074963;28;20436;-61
2022/11/02 07:08:38;;;;;;;3.73;2.50;;;12.50;99.90;;;;;;5075016;28;20445;-62
2022/11/02 07:11:05;;;;;;;7.33;2.80;;;12.50;99.90;;;;;;5074872;28;20455;-62
2022/11/02 07:13:33;;;;;;;3.67;2.53;;;12.60;99.90;;;;;;5075267;28;20885;-63
2022/11/02 07:16:00;;;;;;;4.37;3.03;;;12.60;99.90;;;;;;5075058;28;20870;-62
2022/11/02 07:18:27;;;;;;;7.37;3.07;;;12.60;99.90;;;;;;5075290;28;20488;-62
2022/11/02 07:20:54;;;;;;;6.67;2.20;;;12.80;99.90;;;;;;5074754;28;20447;-62
2022/11/02 07:23:23;;;;;;;8.87;2.70;;;12.70;99.90;;;;;;5074196;28;20468;-62
2022/11/02 07:25:50;;;;;;;11.23;3.07;;;12.80;99.90;;;;;;5074807;28;20443;-61
2022/11/02 07:28:17;;;;;;;11.50;2.80;;;12.80;99.90;;;;;;5074766;28;20480;-61
2022/11/02 07:30:45;;;;;;;7.57;2.70;;;12.80;99.90;;;;;;5074571;28;20506;-62
2022/11/02 07:33:12;;;;;;;5.30;2.50;;;12.80;99.90;;;;;;5075057;28;20480;-61
2022/11/02 07:35:40;;;;;;;6.63;2.80;;;12.90;99.90;;;;;;5074569;28;20444;-61
2022/11/02 07:38:07;;;;;;;3.90;2.97;;;13.00;99.90;;;;;;5074263;28;20947;-62
2022/11/02 07:40:37;;;;;;;8.40;2.87;;;13.10;99.90;;;;;;5074178;28;20757;-62
2022/11/02 07:43:06;;;;;;;5.03;2.50;;;13.20;99.90;;;;;;5074587;28;20475;-62
2022/11/02 07:45:33;;;;;;;4.90;2.67;;;13.30;99.90;;;;;;5074109;28;20451;-61
2022/11/02 07:48:00;;;;;;;8.10;2.70;;;13.30;99.90;;;;;;5074274;28;20476;-61
2022/11/02 07:50:27;;;;;;;4.60;2.30;;;13.40;99.90;;;;;;5074020;28;20531;-59
2022/11/02 07:52:56;;;;;;;8.40;2.60;;;13.60;99.90;;;;;;5074136;28;20497;-59
2022/11/02 07:55:25;;;;;;;4.30;2.70;;;16.60;99.90;;;;;;5073785;28;20551;-59
2022/11/02 07:57:59;;;;;;;3.83;2.10;;;16.50;99.90;;;;;;5074327;28;20448;-55
2022/11/02 08:00:29;;;;;;;8.80;3.13;;;16.50;99.90;;;;;;5074448;28;20503;-55
2022/11/02 08:02:56;;;;;;;6.70;2.93;;;17.10;99.90;;;;;;5072843;28;20496;-55
2022/11/02 08:05:25;;;;;;;5.43;2.33;;;17.70;99.90;;;;;;5069188;28;20496;-55
2022/11/02 08:07:58;;;;;;;7.73;3.50;;;17.90;99.90;;;;;;5073989;28;20448;-55
2022/11/02 08:10:25;;;;;;;8.40;2.73;;;18.00;99.90;;;;;;5073785;28;20435;-56
2022/11/02 08:12:52;;;;;;;4.80;2.27;;;18.60;99.90;;;;;;5068749;28;20989;-55
2022/11/02 08:15:21;;;;;;;6.30;2.60;;;17.80;99.90;;;;;;5068647;28;20543;-56
2022/11/02 08:17:48;;;;;;;4.13;2.30;;;18.10;99.90;;;;;;5068097;28;22692;-53
2022/11/02 08:20:15;;;;;;;5.50;2.90;;;17.50;99.90;;;;;;5073665;28;20577;-50
2022/11/02 08:22:42;;;;;;;5.13;2.43;;;17.10;99.90;;;;;;5073592;28;20464;-49
2022/11/02 08:25:10;;;;;;;5.90;2.60;;;17.10;99.90;;;;;;5073458;28;20448;-55
2022/11/02 08:27:37;;;;;;;5.80;3.20;;;17.40;99.90;;;;;;5060261;28;20465;-53
2022/11/02 08:30:05;;;;;;;4.80;3.00;;;16.90;99.90;;;;;;5053697;28;20499;-56
2022/11/02 08:32:34;;;;;;;7.60;2.70;;;16.70;99.90;;;;;;5078350;28;21013;-60
2022/11/02 08:35:01;;;;;;;15.20;3.23;;;17.40;99.90;;;;;;5093399;28;20450;-58
2022/11/02 08:37:31;;;;;;;9.40;3.00;;;17.40;99.90;;;;;;5072668;28;20464;-57
2022/11/02 08:39:58;;;;;;;3.53;2.50;;;17.20;99.90;;;;;;5072913;28;20480;-63
2022/11/02 08:42:25;;;;;;;3.63;2.20;;;17.80;99.90;;;;;;5072079;28;20903;-50
2022/11/02 08:44:53;;;;;;;7.03;2.87;;;17.80;99.90;;;;;;5071896;28;20483;-56
2022/11/02 08:47:20;;;;;;;5.70;2.60;;;18.00;99.90;;;;;;5072903;28;20480;-54
2022/11/02 08:49:50;;;;;;;5.97;2.50;;;18.90;99.90;;;;;;5070970;28;20576;-59
2022/11/02 08:52:17;;;;;;;5.87;2.40;;;19.50;99.90;;;;;;5072250;28;20476;-54
2022/11/02 08:54:45;;;;;;;6.93;2.90;;;18.40;99.90;;;;;;5072861;28;20484;-58
2022/11/02 08:57:12;;;;;;;4.37;2.20;;;18.00;99.90;;;;;;5072397;28;20452;-58
2022/11/02 08:59:39;;;;;;;9.43;3.20;;;17.60;99.90;;;;;;5072495;28;20563;-61
2022/11/02 09:02:07;;;;;;;4.60;2.37;;;17.90;99.90;;;;;;5054748;28;20560;-60
2022/11/02 09:04:34;;;;;;;3.63;2.47;;;18.60;99.90;;;;;;5052485;28;20979;-58
2022/11/02 09:07:03;;;;;;;5.83;2.17;;;19.30;99.90;;;;;;5052599;28;20449;-56
2022/11/02 09:09:30;;;;;;;5.00;2.53;;;19.70;99.90;;;;;;5065558;28;20548;-56
2022/11/02 09:11:57;;;;;;;7.00;2.20;;;19.40;99.90;;;;;;5071788;28;20851;-58
2022/11/02 09:14:24;;;;;;;7.10;2.40;;;19.50;99.90;;;;;;5072453;28;20452;-57
2022/11/02 09:16:51;;;;;;;4.00;2.50;;;19.70;99.90;;;;;;5072624;28;20517;-58
2022/11/02 09:19:19;;;;;;;6.00;2.43;;;18.50;99.90;;;;;;5072170;28;20487;-55
2022/11/02 09:21:46;;;;;;;9.50;2.80;;;17.80;99.90;;;;;;5071360;28;20452;-59
2022/11/02 09:24:15;;;;;;;3.20;2.07;;;18.20;99.90;;;;;;5072417;28;20584;-59
2022/11/02 09:26:42;;;;;;;4.10;2.43;;;19.10;99.90;;;;;;5070050;28;20472;-55
2022/11/02 09:29:09;;;;;;;9.57;2.90;;;19.80;99.90;;;;;;5072802;28;20494;-60
2022/11/02 09:31:37;;;;;;;4.03;2.53;;;19.80;99.90;;;;;;5066395;28;20464;-58
2022/11/02 09:34:04;;;;;;;4.07;2.23;;;19.60;99.90;;;;;;5077634;28;20468;-55
2022/11/02 09:36:31;;;;;;;3.50;2.10;;;19.70;99.90;;;;;;5069543;28;20526;-58
2022/11/02 09:38:58;;;;;;;5.33;2.20;;;20.20;99.90;;;;;;5053094;28;20554;-56
2022/11/02 09:41:34;;;;;;;5.20;2.40;;;19.70;99.90;;;;;;5066974;28;20448;-54
2022/11/02 09:44:07;;;;;;;3.50;2.33;;;19.50;99.90;;;;;;5070099;28;20490;-58
2022/11/02 09:46:38;;;;;;;4.30;2.77;;;20.10;99.90;;;;;;5075319;28;20902;-56
2022/11/02 09:49:12;;;;;;;4.80;2.37;;;20.10;99.90;;;;;;5073519;28;20452;-54
2022/11/02 09:51:43;;;;;;;5.90;2.00;;;20.00;99.90;;;;;;5069283;28;20452;-55
2022/11/02 09:54:16;;;;;;;4.73;2.10;;;19.60;99.90;;;;;;5073371;28;20507;-58
2022/11/02 09:56:45;;;;;;;3.77;1.90;;;19.30;99.90;;;;;;5074723;28;20451;-58
2022/11/02 09:59:15;;;;;;;10.00;2.70;;;19.50;99.90;;;;;;5060197;28;20572;-56
2022/11/02 10:01:58;;;;;;;5.87;2.50;;;20.10;99.90;;;;;;5070733;28;20463;-57
2022/11/02 10:04:50;;;;;;;4.03;2.20;;;20.30;99.90;;;;;;5057000;28;20548;-58
2022/11/02 10:07:29;;;;;;;4.37;1.90;;;20.60;99.90;;;;;;5062887;28;20808;-58
2022/11/02 10:10:00;;;;;;;4.33;2.10;;;20.40;99.90;;;;;;5064364;28;20513;-56
2022/11/02 10:12:41;;;;;;;6.00;2.30;;;20.10;99.90;;;;;;5061943;28;21037;-56
2022/11/02 10:15:16;;;;;;;8.43;2.23;;;20.10;99.90;;;;;;5068183;28;20456;-58
2022/11/02 10:17:52;;;;;;;3.73;1.90;;;18.90;99.90;;;;;;5073992;28;20440;-58
2022/11/02 10:20:28;;;;;;;4.50;2.07;;;19.80;99.90;;;;;;5073752;28;20464;-57
2022/11/02 10:23:02;;;;;;;5.53;2.33;;;20.50;99.90;;;;;;5060771;28;20494;-54
2022/11/02 10:25:29;;;;;;;4.70;2.80;;;20.30;99.90;;;;;;5074158;28;20432;-55
2022/11/02 10:30:52;;;;;;;4.37;2.20;;;19.20;99.90;;;;;;5074732;28;20440;-54
2022/11/02 10:33:25;;;;;;;7.13;2.20;;;19.50;99.90;;;;;;5062152;28;20475;-55
2022/11/02 10:36:09;;;;;;;5.17;2.37;;;19.70;99.90;;;;;;5071639;28;20958;-57
2022/11/02 10:38:46;;;;;;;3.67;1.97;;;19.80;99.90;;;;;;5066480;28;20467;-57
2022/11/02 10:41:36;;;;;;;6.20;2.57;;;19.30;99.90;;;;;;5058128;28;20464;-56
2022/11/02 10:44:23;;;;;;;6.27;2.40;;;19.20;99.90;;;;;;5064325;28;20481;-57
2022/11/02 10:47:02;;;;;;;3.47;2.50;;;19.00;99.90;;;;;;5062338;28;20461;-56
2022/11/02 10:49:52;;;;;;;4.50;2.33;;;18.90;99.90;;;;;;5065062;28;20422;-56
2022/11/02 10:52:19;;;;;;;5.53;2.10;;;20.00;99.90;;;;;;5064517;28;20476;-61
2022/11/02 10:54:50;;;;;;;6.00;2.10;;;20.20;99.90;;;;;;5063316;28;20473;-57
2022/11/02 10:57:22;;;;;;;5.83;2.40;;;19.70;99.90;;;;;;5061449;28;20461;-58
2022/11/02 11:00:28;;;;;;;4.57;1.73;;;19.70;99.90;;;;;;5061886;28;20559;-50
2022/11/02 11:03:11;;;;;;;5.67;2.37;;;19.80;99.90;;;;;;5061828;28;20484;-56
2022/11/02 11:05:56;;;;;;;4.60;2.43;;;20.40;99.90;;;;;;5047227;28;20492;-57
2022/11/02 11:08:36;;;;;;;7.23;3.07;;;19.80;99.90;;;;;;5041479;28;20451;-60
2022/11/02 11:11:19;;;;;;;4.13;2.10;;;19.10;99.90;;;;;;5041797;28;20449;-57
2022/11/02 11:13:54;;;;;;;4.67;2.00;;;18.70;99.90;;;;;;5039546;28;20568;-56
2022/11/02 11:16:35;;;;;;;4.90;2.10;;;18.80;99.90;;;;;;5035802;28;20914;-58
2022/11/02 11:19:03;;;;;;;4.17;2.43;;;18.90;99.90;;;;;;5045148;28;20466;-58
2022/11/02 11:21:41;;;;;;;5.57;2.10;;;19.50;99.90;;;;;;5036745;28;20474;-58
2022/11/02 11:24:29;;;;;;;10.20;2.50;;;19.80;99.90;;;;;;5039056;28;20516;-57
2022/11/02 11:27:16;;;;;;;5.20;2.53;;;20.20;99.90;;;;;;5031290;28;21060;-54
2022/11/02 11:29:53;;;;;;;8.93;2.30;;;20.70;99.90;;;;;;5044071;28;20455;-56
2022/11/02 11:32:24;;;;;;;4.77;2.60;;;20.70;99.90;;;;;;5043063;28;20473;-53
2022/11/02 11:34:58;;;;;;;22.50;2.40;;;20.90;99.90;;;;;;5045983;28;20438;-57
2022/11/02 11:37:26;;;;;;;4.43;2.40;;;20.70;99.90;;;;;;5046103;28;20484;-54
2022/11/02 11:39:58;;;;;;;8.10;2.90;;;20.90;99.90;;;;;;5047672;28;20598;-56
2022/11/02 11:42:28;;;;;;;6.33;2.97;;;21.20;99.90;;;;;;5040540;28;20537;-57
2022/11/02 11:45:01;;;;;;;4.60;2.23;;;21.80;99.40;;;;;;5046674;28;20441;-58
2022/11/02 11:47:37;;;;;;;7.60;2.53;;;21.10;99.50;;;;;;5040715;28;20568;-57
2022/11/02 11:50:07;;;;;;;5.03;2.20;;;19.60;99.90;;;;;;5041374;28;20429;-55
2022/11/02 11:52:35;;;;;;;8.30;2.20;;;20.20;99.30;;;;;;5042400;28;20571;-58
2022/11/02 11:55:20;;;;;;;6.33;2.30;;;19.00;99.40;;;;;;5042501;28;20454;-58
2022/11/02 11:58:06;;;;;;;10.60;3.00;;;18.60;99.90;;;;;;5041261;28;20756;-55
2022/11/02 12:00:34;;;;;;;5.43;2.30;;;18.90;99.90;;;;;;5041078;28;20912;-55
2022/11/02 12:03:08;;;;;;;6.70;2.13;;;19.20;99.90;;;;;;5040936;28;20476;-54
2022/11/02 12:05:47;;;;;;;5.97;3.17;;;20.00;99.60;;;;;;5062032;28;20978;-55
2022/11/02 12:08:37;;;;;;;6.63;2.23;;;18.90;99.60;;;;;;5059896;28;20943;-55
2022/11/02 12:11:26;;;;;;;6.37;2.30;;;18.20;98.30;;;;;;5059547;28;20432;-57
2022/11/02 12:14:10;;;;;;;5.33;2.60;;;18.80;99.60;;;;;;5064008;28;20454;-58
2022/11/02 12:16:50;;;;;;;4.50;2.70;;;;;;;;;;5064835;28;20459;-53
2022/11/02 12:19:29;;;;;;;6.63;2.90;;;;;;;;;;5063360;28;20428;-55
2022/11/02 12:22:14;;;;;;;5.10;2.20;;;19.60;97.80;;;;;;5063055;28;20464;-60
2022/11/02 12:25:04;;;;;;;6.97;2.40;;;19.50;97.30;;;;;;5066194;28;20464;-52
2022/11/02 12:27:42;;;;;;;4.87;2.40;;;18.80;98.20;;;;;;5066332;28;20510;-57
2022/11/02 12:30:18;;;;;;;5.90;2.17;;;19.00;98.90;;;;;;5061330;28;20454;-56
2022/11/02 12:33:19;;;;;;;4.70;2.43;;;19.60;98.90;;;;;;5060063;28;20560;-55
2022/11/02 12:36:05;;;;;;;5.00;2.10;;;21.00;97.50;;;;;;5064107;28;20508;-55
2022/11/02 12:39:00;;;;;;;5.43;2.43;;;21.40;96.40;;;;;;5063819;28;20954;-55
2022/11/02 12:41:52;;;;;;;6.90;2.17;;;21.40;95.70;;;;;;5060855;28;20473;-55
2022/11/02 12:46:56;;;;;;;5.27;1.70;;;20.80;95.10;;;;;;5086691;28;20811;-55
2022/11/02 12:49:41;;;;;;;8.43;2.50;;;20.60;95.60;;;;;;5091275;28;20455;-57
2022/11/02 12:52:21;;;;;;;3.90;1.97;;;20.60;95.00;;;;;;5091540;28;20771;-57
2022/11/02 12:54:52;;;;;;;4.53;1.93;;;20.60;94.40;;;;;;5092548;28;20462;-57
2022/11/02 12:57:27;;;;;;;5.27;2.40;;;19.90;95.60;;;;;;5090419;28;20436;-56
2022/11/02 13:00:00;;;;;;;5.20;1.80;;;20.70;94.40;;;;;;5089627;28;20814;-57
2022/11/02 13:02:33;;;;;;;5.40;2.73;;;20.90;94.60;;;;;;5091154;28;20467;-56
2022/11/02 13:05:05;;;;;;;4.40;2.47;;;21.50;93.90;;;;;;5090739;28;20467;-57
2022/11/02 13:07:41;;;;;;;1.80;1.60;;;21.30;93.70;;;;;;5093213;28;20448;-58
2022/11/02 13:10:16;;;;;;;3.43;1.83;;;;;;;;;;5091013;28;20893;-57
2022/11/02 13:12:50;;;;;;;3.90;2.00;;;22.40;91.80;;;;;;5092380;28;20463;-57
2022/11/02 13:15:20;;;;;;;3.70;2.37;;;22.40;91.70;;;;;;5092402;28;20482;-58
2022/11/02 13:17:52;;;;;;;9.37;2.70;;;22.70;91.30;;;;;;5091039;28;20455;-56
2022/11/02 13:20:24;;;;;;;5.60;2.73;;;22.40;91.50;;;;;;5091654;28;20590;-56
2022/11/02 13:22:58;;;;;;;3.67;2.13;;;20.90;92.50;;;;;;5091234;28;20997;-54
2022/11/02 13:25:30;;;;;;;8.90;2.80;;;19.80;92.30;;;;;;5091757;28;20968;-55
2022/11/02 13:28:01;;;;;;;3.87;2.23;;;19.00;93.40;;;;;;5090852;28;20933;-55
2022/11/02 13:30:29;;;;;;;4.57;2.27;;;18.80;94.10;;;;;;5092358;28;20424;-56